createdAt,value
2023-10-03T00:01:01.092Z,18.17
2023-10-03T00:03:30.612Z,16.97
2023-10-03T00:05:59.772Z,14.10
2023-10-03T00:08:29.199Z,14.20
2023-10-03T00:10:58.512Z,13.63
2023-10-03T00:13:27.626Z,13.90
2023-10-03T00:15:56.770Z,15.20
2023-10-03T00:18:27.569Z,15.60
2023-10-03T00:20:57.094Z,15.43
2023-10-03T00:23:28.437Z,14.43
2023-10-03T00:26:00.455Z,14.40
2023-10-03T00:28:31.150Z,15.00
2023-10-03T00:31:02.839Z,14.97
2023-10-03T00:33:33.386Z,16.43
2023-10-03T00:36:04.117Z,18.87
2023-10-03T00:38:35.379Z,15.83
2023-10-03T00:41:04.802Z,18.87
2023-10-03T00:43:33.940Z,17.50
2023-10-03T00:46:02.938Z,15.83
2023-10-03T00:48:33.809Z,17.87
2023-10-03T00:51:04.873Z,16.30
2023-10-03T00:53:36.067Z,17.47
2023-10-03T00:56:10.323Z,15.03
2023-10-03T00:58:42.570Z,14.47
2023-10-03T01:01:13.204Z,15.13
2023-10-03T01:03:43.967Z,14.67
2023-10-03T01:06:14.375Z,14.57
2023-10-03T01:08:44.994Z,14.40
2023-10-03T01:11:17.942Z,12.63
2023-10-03T01:13:49.750Z,12.47
2023-10-03T01:16:28.273Z,14.37
2023-10-03T01:19:09.326Z,13.03
2023-10-03T01:21:42.164Z,14.30
2023-10-03T01:24:15.765Z,16.43
2023-10-03T01:26:46.121Z,16.43
2023-10-03T01:29:16.532Z,14.63
2023-10-03T01:31:45.916Z,16.80
2023-10-03T01:34:16.361Z,17.60
2023-10-03T01:36:49.433Z,16.90
2023-10-03T01:39:20.442Z,15.97
2023-10-03T01:41:49.768Z,15.93
2023-10-03T01:44:19.706Z,15.90
2023-10-03T01:46:48.993Z,16.73
2023-10-03T01:49:18.180Z,14.10
2023-10-03T01:51:48.023Z,15.20
2023-10-03T01:54:17.603Z,12.97
2023-10-03T01:56:48.165Z,13.90
2023-10-03T01:59:18.360Z,15.70
2023-10-03T02:01:47.503Z,15.33
2023-10-03T02:04:16.885Z,13.77
2023-10-03T02:06:46.241Z,14.33
2023-10-03T02:09:16.208Z,11.83
2023-10-03T02:11:45.311Z,10.27
2023-10-03T02:14:15.978Z,15.13
2023-10-03T02:16:47.673Z,16.70
2023-10-03T02:19:18.483Z,13.77
2023-10-03T02:21:48.318Z,13.37
2023-10-03T02:24:17.545Z,10.23
2023-10-03T02:26:46.843Z,9.37
2023-10-03T02:29:17.311Z,10.50
2023-10-03T02:31:47.545Z,12.30
2023-10-03T02:34:17.406Z,12.87
2023-10-03T02:36:49.808Z,10.83
2023-10-03T02:39:26.284Z,11.80
2023-10-03T02:41:56.261Z,11.03
2023-10-03T02:44:28.413Z,10.17
2023-10-03T02:46:57.613Z,9.40
2023-10-03T02:49:26.889Z,8.30
2023-10-03T02:51:56.482Z,9.77
2023-10-03T02:54:25.527Z,11.93
2023-10-03T02:56:55.226Z,9.00
2023-10-03T02:59:24.738Z,9.40
2023-10-03T03:01:57.963Z,11.50
2023-10-03T03:04:29.751Z,10.80
2023-10-03T03:07:03.887Z,8.43
2023-10-03T03:09:37.605Z,6.87
2023-10-03T03:12:06.955Z,9.07
2023-10-03T03:14:38.101Z,9.70
2023-10-03T03:17:15.171Z,10.37
2023-10-03T03:19:45.628Z,10.37
2023-10-03T03:22:16.776Z,10.30
2023-10-03T03:24:52.999Z,9.90
2023-10-03T03:27:27.431Z,10.83
2023-10-03T03:30:24.271Z,8.90
2023-10-03T03:32:55.797Z,12.20
2023-10-03T03:35:25.935Z,11.80
2023-10-03T03:37:57.663Z,9.40
2023-10-03T03:40:33.172Z,9.67
2023-10-03T03:43:04.623Z,7.90
2023-10-03T03:45:33.686Z,11.10
2023-10-03T03:48:04.705Z,7.40
2023-10-03T03:50:35.773Z,10.67
2023-10-03T03:53:05.324Z,9.13
2023-10-03T03:55:35.689Z,8.77
2023-10-03T03:58:06.836Z,7.27
2023-10-03T04:00:39.121Z,9.63
2023-10-03T04:03:13.244Z,9.30
2023-10-03T04:05:42.827Z,8.83
2023-10-03T04:08:12.191Z,9.33
2023-10-03T04:10:41.616Z,10.77
2023-10-03T04:13:11.848Z,10.07
2023-10-03T04:15:42.181Z,9.90
2023-10-03T04:18:13.283Z,9.10
2023-10-03T04:20:45.557Z,8.03
2023-10-03T04:23:15.228Z,10.07
2023-10-03T04:25:44.401Z,7.93
2023-10-03T04:28:17.753Z,8.47
2023-10-03T04:30:47.173Z,6.30
2023-10-03T04:33:22.393Z,13.23
2023-10-03T04:35:52.425Z,10.13
2023-10-03T04:38:21.913Z,10.10
2023-10-03T04:40:51.096Z,12.87
2023-10-03T04:43:20.165Z,11.23
2023-10-03T04:45:49.312Z,9.40
2023-10-03T04:48:19.915Z,9.77
2023-10-03T04:50:49.112Z,9.57
2023-10-03T04:53:18.367Z,7.47
2023-10-03T04:55:49.465Z,8.50
2023-10-03T04:58:19.344Z,6.47
2023-10-03T05:00:49.162Z,7.60
2023-10-03T05:03:21.278Z,8.50
2023-10-03T05:05:51.373Z,9.37
2023-10-03T05:08:20.755Z,7.77
2023-10-03T05:10:50.047Z,7.37
2023-10-03T05:13:21.007Z,8.77
2023-10-03T05:15:50.057Z,8.80
2023-10-03T05:18:20.740Z,7.90
2023-10-03T05:20:51.113Z,7.60
2023-10-03T05:23:23.318Z,6.83
2023-10-03T05:25:52.440Z,7.90
2023-10-03T05:28:21.765Z,7.23
2023-10-03T05:30:51.547Z,7.97
2023-10-03T05:33:22.167Z,9.60
2023-10-03T05:35:51.381Z,7.27
2023-10-03T05:38:20.675Z,7.03
2023-10-03T05:40:49.835Z,6.90
2023-10-03T05:43:19.157Z,6.57
2023-10-03T05:45:50.898Z,8.13
2023-10-03T05:48:26.806Z,10.83
2023-10-03T05:50:56.954Z,10.83
2023-10-03T05:53:26.612Z,6.00
2023-10-03T05:55:55.848Z,9.40
2023-10-03T05:58:25.122Z,8.13
2023-10-03T06:00:54.319Z,7.87
2023-10-03T06:03:25.061Z,8.87
2023-10-03T06:05:54.297Z,7.40
2023-10-03T06:08:23.632Z,8.53
2023-10-03T06:10:52.865Z,8.87
2023-10-03T06:13:21.911Z,8.27
2023-10-03T06:15:50.949Z,8.30
2023-10-03T06:18:20.435Z,8.93
2023-10-03T06:20:51.393Z,9.13
2023-10-03T06:23:20.590Z,11.47
2023-10-03T06:25:50.697Z,9.70
2023-10-03T06:28:23.102Z,8.73
2023-10-03T06:30:53.711Z,8.90
2023-10-03T06:33:23.282Z,8.53
2023-10-03T06:35:56.696Z,10.07
2023-10-03T06:38:26.429Z,12.03
2023-10-03T06:40:55.430Z,11.87
2023-10-03T06:43:24.744Z,12.50
2023-10-03T06:45:54.103Z,12.17
2023-10-03T06:48:25.306Z,13.60
2023-10-03T06:50:54.689Z,14.03
2023-10-03T06:53:25.176Z,11.00
2023-10-03T06:55:54.944Z,9.47
2023-10-03T06:58:24.068Z,9.60
2023-10-03T07:00:56.119Z,9.87
2023-10-03T07:03:25.628Z,8.97
2023-10-03T07:05:55.734Z,12.37
2023-10-03T07:08:27.270Z,9.13
2023-10-03T07:10:58.430Z,11.33
2023-10-03T07:13:28.348Z,9.43
2023-10-03T07:16:00.103Z,9.13
2023-10-03T07:18:29.133Z,9.57
2023-10-03T07:20:58.394Z,9.40
2023-10-03T07:23:29.324Z,13.47
2023-10-03T07:25:58.574Z,9.20
2023-10-03T07:28:27.822Z,9.30
2023-10-03T07:30:57.342Z,8.20
2023-10-03T07:33:26.647Z,9.17
2023-10-03T07:35:58.095Z,8.23
2023-10-03T07:38:29.941Z,8.10
2023-10-03T07:40:59.094Z,8.53
2023-10-03T07:43:30.137Z,9.07
2023-10-03T07:46:00.083Z,11.57
2023-10-03T07:48:31.181Z,9.23
2023-10-03T07:51:00.637Z,10.27
2023-10-03T07:53:32.170Z,9.00
2023-10-03T07:56:01.439Z,7.93
2023-10-03T07:58:34.107Z,13.07
2023-10-03T08:01:05.932Z,14.73
2023-10-03T08:03:36.530Z,8.10
2023-10-03T08:06:06.081Z,8.10
2023-10-03T08:08:36.674Z,11.63
2023-10-03T08:11:08.278Z,7.30
2023-10-03T08:13:40.544Z,10.07
2023-10-03T08:16:10.127Z,7.90
2023-10-03T08:18:47.822Z,6.88
2023-10-03T08:21:17.595Z,6.95
2023-10-03T08:23:52.951Z,10.80
2023-10-03T08:26:23.096Z,7.50
2023-10-03T08:29:00.962Z,11.02
2023-10-03T08:31:30.574Z,7.53
2023-10-03T08:33:59.830Z,7.10
2023-10-03T08:36:30.473Z,8.10
2023-10-03T08:39:16.033Z,6.50
2023-10-03T08:41:49.542Z,6.07
2023-10-03T08:44:19.229Z,8.10
2023-10-03T08:46:56.716Z,6.53
2023-10-03T08:49:39.449Z,6.55
2023-10-03T08:52:11.154Z,6.93
2023-10-03T08:54:44.364Z,6.55
2023-10-03T08:57:13.863Z,6.75
2023-10-03T08:59:43.069Z,6.45
2023-10-03T09:02:16.580Z,7.07
2023-10-03T09:04:46.163Z,6.03
2023-10-03T09:07:15.401Z,7.38
2023-10-03T09:09:46.697Z,7.13
2023-10-03T09:12:21.661Z,6.88
2023-10-03T09:14:54.899Z,6.85
2023-10-03T09:17:25.275Z,7.57
2023-10-03T09:19:54.635Z,6.47
2023-10-03T09:22:32.510Z,6.53
2023-10-03T09:25:03.919Z,6.18
2023-10-03T09:27:33.117Z,8.77
2023-10-03T09:30:24.538Z,6.05
2023-10-03T09:33:12.220Z,6.03
2023-10-03T09:35:42.047Z,5.07
2023-10-03T09:38:18.852Z,5.22
2023-10-03T09:40:51.392Z,6.82
2023-10-03T09:43:28.507Z,5.72
2023-10-03T09:46:01.767Z,5.05
2023-10-03T09:48:31.708Z,7.18
2023-10-03T09:51:07.168Z,7.35
2023-10-03T09:53:37.770Z,6.97
2023-10-03T09:56:09.647Z,5.85
2023-10-03T09:58:39.135Z,6.10
2023-10-03T10:01:08.392Z,8.38
2023-10-03T10:03:47.973Z,8.60
2023-10-03T10:06:27.175Z,8.27
2023-10-03T10:09:04.021Z,7.45
2023-10-03T10:11:34.899Z,8.13
2023-10-03T10:14:09.881Z,7.95
2023-10-03T10:17:17.603Z,5.97
2023-10-03T10:20:12.624Z,4.30
2023-10-03T10:23:16.804Z,4.03
2023-10-03T10:26:07.358Z,4.40
2023-10-03T10:28:39.092Z,6.32
2023-10-03T10:31:24.299Z,7.32
2023-10-03T10:34:33.884Z,6.00
2023-10-03T10:37:04.510Z,5.25
2023-10-03T10:40:11.500Z,6.63
2023-10-03T10:43:01.597Z,4.50
2023-10-03T10:45:39.757Z,6.60
2023-10-03T10:48:09.906Z,5.75
2023-10-03T10:51:15.691Z,6.25
2023-10-03T10:53:48.680Z,5.95
2023-10-03T10:56:18.089Z,6.20
2023-10-03T10:59:05.203Z,5.47
2023-10-03T11:01:43.402Z,4.43
2023-10-03T11:04:25.733Z,5.82
2023-10-03T11:06:54.945Z,5.28
2023-10-03T11:09:24.870Z,5.80
2023-10-03T11:11:54.518Z,4.35
2023-10-03T11:14:31.172Z,3.60
2023-10-03T11:17:03.589Z,4.63
2023-10-03T11:19:34.752Z,4.72
2023-10-03T11:22:05.367Z,5.63
2023-10-03T11:24:40.414Z,4.88
2023-10-03T11:27:09.507Z,4.65
2023-10-03T11:29:46.326Z,4.18
2023-10-03T11:32:27.393Z,4.47
2023-10-03T11:34:59.075Z,3.63
2023-10-03T11:37:31.663Z,4.47
2023-10-03T11:40:12.260Z,3.85
2023-10-03T11:42:52.689Z,4.60
2023-10-03T11:45:23.545Z,3.38
2023-10-03T11:48:01.757Z,4.85
2023-10-03T11:50:33.425Z,4.28
2023-10-03T11:53:02.913Z,4.38
2023-10-03T11:55:34.334Z,4.35
2023-10-03T11:58:04.828Z,4.43
2023-10-03T12:00:35.296Z,4.43
2023-10-03T12:03:07.781Z,4.45
2023-10-03T12:05:37.811Z,3.85
2023-10-03T12:08:08.238Z,3.42
2023-10-03T12:10:38.017Z,4.03
2023-10-03T12:13:07.226Z,3.60
2023-10-03T12:15:37.642Z,4.13
2023-10-03T12:18:08.402Z,4.28
2023-10-03T12:20:39.981Z,4.07
2023-10-03T12:23:09.344Z,4.15
2023-10-03T12:25:38.517Z,4.18
2023-10-03T12:28:09.150Z,3.33
2023-10-03T12:30:38.363Z,2.65
2023-10-03T12:34:04.254Z,2.75
2023-10-03T12:36:35.303Z,2.13
2023-10-03T12:39:07.064Z,3.55
2023-10-03T12:41:36.209Z,3.97
2023-10-03T12:44:05.895Z,3.33
2023-10-03T12:46:36.158Z,3.45
2023-10-03T12:49:08.404Z,2.70
2023-10-03T12:51:37.497Z,3.55
2023-10-03T12:54:07.531Z,2.92
2023-10-03T12:56:37.033Z,2.75
2023-10-03T12:59:06.966Z,2.63
2023-10-03T13:01:36.038Z,2.10
2023-10-03T13:04:08.051Z,3.15
2023-10-03T13:06:37.195Z,2.70
2023-10-03T13:09:07.162Z,3.45
2023-10-03T13:11:36.290Z,3.00
2023-10-03T13:14:05.472Z,3.75
2023-10-03T13:16:34.678Z,3.70
2023-10-03T13:19:04.042Z,2.70
2023-10-03T13:21:36.611Z,2.80
2023-10-03T13:24:06.580Z,3.05
2023-10-03T13:26:36.060Z,3.40
2023-10-03T13:29:05.308Z,3.47
2023-10-03T13:31:35.971Z,2.70
2023-10-03T13:34:06.195Z,3.65
2023-10-03T13:36:36.810Z,3.53
2023-10-03T13:39:07.659Z,2.22
2023-10-03T13:41:36.904Z,1.98
2023-10-03T13:44:06.931Z,1.45
2023-10-03T13:46:36.221Z,1.08
2023-10-03T13:49:08.021Z,1.33
2023-10-03T13:51:40.046Z,1.80
2023-10-03T13:54:09.581Z,1.02
2023-10-03T13:56:40.663Z,0.70
2023-10-03T13:59:11.420Z,0.68
2023-10-03T14:01:40.829Z,1.50
2023-10-03T14:04:10.790Z,0.50
2023-10-03T14:06:41.727Z,0.85
2023-10-03T14:09:11.050Z,0.60
2023-10-03T14:11:41.644Z,0.70
2023-10-03T14:14:12.063Z,0.80
2023-10-03T14:16:41.149Z,0.90
2023-10-03T14:19:10.249Z,1.13
2023-10-03T14:21:46.486Z,0.75
2023-10-03T14:24:16.409Z,1.30
2023-10-03T14:26:45.556Z,1.60
2023-10-03T14:29:14.788Z,1.80
2023-10-03T14:31:44.148Z,2.00
2023-10-03T14:34:13.308Z,1.20
2023-10-03T14:36:44.700Z,0.88
2023-10-03T14:39:14.649Z,0.80
2023-10-03T14:41:43.871Z,1.15
2023-10-03T14:44:13.057Z,0.95
2023-10-03T14:46:42.259Z,0.70
2023-10-03T14:49:11.625Z,0.38
2023-10-03T14:51:40.782Z,0.50
2023-10-03T14:54:12.605Z,0.50
2023-10-03T14:56:41.891Z,0.43
2023-10-03T14:59:10.944Z,0.52
2023-10-03T15:01:40.082Z,0.60
2023-10-03T15:04:11.045Z,0.55
2023-10-03T15:06:40.732Z,0.40
2023-10-03T15:09:11.220Z,0.52
2023-10-03T15:11:40.423Z,0.55
2023-10-03T15:14:09.662Z,0.55
2023-10-03T15:16:39.555Z,0.50
2023-10-03T15:19:08.591Z,0.57
2023-10-03T15:21:37.843Z,0.45
2023-10-03T15:24:07.523Z,0.60
2023-10-03T15:26:38.031Z,0.65
2023-10-03T15:29:07.169Z,0.68
2023-10-03T15:31:37.069Z,0.40
2023-10-03T15:34:06.365Z,0.50
2023-10-03T15:36:36.868Z,0.67
2023-10-03T15:39:09.652Z,0.50
2023-10-03T15:41:40.153Z,0.60
2023-10-03T15:44:11.418Z,0.67
2023-10-03T15:46:40.829Z,0.70
2023-10-03T15:49:10.109Z,1.70
2023-10-03T15:51:40.246Z,1.50
2023-10-03T15:54:10.459Z,1.10
2023-10-03T15:56:41.307Z,0.90
2023-10-03T15:59:12.821Z,1.00
2023-10-03T16:01:42.321Z,0.90
2023-10-03T16:04:11.727Z,1.00
2023-10-03T16:06:41.145Z,0.70
2023-10-03T16:09:13.737Z,0.90
2023-10-03T16:11:47.577Z,0.60
2023-10-03T16:14:17.974Z,1.00
2023-10-03T16:16:47.660Z,0.90
2023-10-03T16:19:21.770Z,0.80
2023-10-03T16:21:50.803Z,0.90
2023-10-03T16:24:19.881Z,1.07
2023-10-03T16:26:50.493Z,0.90
2023-10-03T16:29:20.385Z,0.80
2023-10-03T16:31:49.445Z,1.27
2023-10-03T16:34:18.476Z,0.80
2023-10-03T16:36:47.604Z,0.90
2023-10-03T16:39:16.827Z,1.00
2023-10-03T16:41:46.622Z,1.07
2023-10-03T16:44:17.153Z,1.30
2023-10-03T16:46:46.808Z,1.43
2023-10-03T16:49:16.829Z,1.00
2023-10-03T16:51:45.852Z,1.00
2023-10-03T16:54:15.006Z,1.03
2023-10-03T16:56:44.177Z,1.60
2023-10-03T16:59:13.825Z,1.30
2023-10-03T17:01:44.367Z,1.30
2023-10-03T17:04:13.495Z,1.30
2023-10-03T17:06:42.743Z,0.80
2023-10-03T17:09:13.643Z,1.40
2023-10-03T17:11:43.148Z,1.20
2023-10-03T17:14:12.221Z,1.60
2023-10-03T17:16:41.394Z,1.00
2023-10-03T17:19:11.904Z,1.43
2023-10-03T17:21:41.596Z,1.30
2023-10-03T17:24:10.733Z,1.00
2023-10-03T17:26:40.110Z,0.87
2023-10-03T17:29:12.954Z,1.20
2023-10-03T17:31:43.185Z,1.60
2023-10-03T17:34:14.089Z,1.40
2023-10-03T17:36:46.130Z,1.90
2023-10-03T17:39:16.755Z,1.57
2023-10-03T17:41:46.283Z,1.80
2023-10-03T17:44:15.867Z,1.83
2023-10-03T17:46:45.029Z,2.03
2023-10-03T17:49:16.037Z,1.83
2023-10-03T17:51:45.180Z,2.13
2023-10-03T17:54:31.102Z,2.33
2023-10-03T17:57:03.833Z,1.93
2023-10-03T17:59:33.089Z,2.00
2023-10-03T18:02:02.111Z,2.07
2023-10-03T18:04:33.985Z,1.93
2023-10-03T18:07:03.464Z,2.27
2023-10-03T18:09:32.632Z,2.30
2023-10-03T18:12:01.717Z,2.50
2023-10-03T18:14:31.003Z,2.30
2023-10-03T18:17:00.896Z,2.90
2023-10-03T18:19:30.207Z,1.90
2023-10-03T18:22:02.058Z,1.97
2023-10-03T18:24:31.210Z,2.40
2023-10-03T18:27:00.380Z,2.30
2023-10-03T18:29:29.570Z,2.50
2023-10-03T18:31:58.619Z,1.70
2023-10-03T18:34:27.799Z,1.87
2023-10-03T18:36:57.774Z,1.83
2023-10-03T18:39:28.373Z,2.00
2023-10-03T18:41:57.556Z,2.03
2023-10-03T18:44:27.858Z,2.20
2023-10-03T18:46:57.384Z,2.40
2023-10-03T18:49:28.336Z,2.53
2023-10-03T18:51:57.719Z,2.50
2023-10-03T18:54:28.088Z,2.23
2023-10-03T18:56:57.367Z,2.27
2023-10-03T18:59:26.753Z,2.30
2023-10-03T19:01:55.977Z,2.43
2023-10-03T19:04:25.312Z,1.90
2023-10-03T19:06:55.307Z,1.60
2023-10-03T19:09:24.915Z,1.90
2023-10-03T19:11:55.884Z,2.20
2023-10-03T19:14:25.493Z,2.00
2023-10-03T19:16:55.844Z,1.57
2023-10-03T19:19:25.725Z,1.40
2023-10-03T19:21:54.776Z,1.90
2023-10-03T19:24:24.104Z,1.70
2023-10-03T19:26:54.861Z,2.00
2023-10-03T19:29:24.253Z,1.57
2023-10-03T19:31:53.244Z,1.63
2023-10-03T19:34:22.321Z,1.80
2023-10-03T19:36:51.465Z,1.60
2023-10-03T19:39:20.606Z,1.50
2023-10-03T19:41:49.777Z,1.50
2023-10-03T19:44:26.187Z,1.60
2023-10-03T19:46:59.231Z,1.80
2023-10-03T19:49:31.267Z,1.77
2023-10-03T19:52:00.473Z,1.80
2023-10-03T19:54:33.047Z,1.63
2023-10-03T19:57:02.474Z,1.70
2023-10-03T19:59:36.107Z,1.43
2023-10-03T20:02:05.620Z,1.20
2023-10-03T20:04:34.963Z,1.50
2023-10-03T20:07:04.111Z,1.00
2023-10-03T20:09:33.821Z,1.20
2023-10-03T20:12:03.077Z,1.33
2023-10-03T20:14:33.598Z,1.23
2023-10-03T20:17:02.766Z,1.30
2023-10-03T20:19:31.913Z,1.30
2023-10-03T20:22:01.071Z,1.30
2023-10-03T20:24:30.489Z,0.90
2023-10-03T20:26:59.662Z,0.90
2023-10-03T20:29:28.918Z,1.00
2023-10-03T20:31:59.618Z,1.37
2023-10-03T20:34:28.852Z,1.23
2023-10-03T20:37:00.341Z,1.50
2023-10-03T20:39:32.933Z,1.70
2023-10-03T20:42:03.328Z,1.50
2023-10-03T20:44:32.523Z,1.30
2023-10-03T20:47:05.776Z,1.20
2023-10-03T20:49:34.809Z,1.13
2023-10-03T20:52:03.899Z,1.20
2023-10-03T20:54:32.948Z,1.30
2023-10-03T20:57:02.036Z,1.17
2023-10-03T20:59:31.186Z,1.10
2023-10-03T21:02:00.327Z,1.10
2023-10-03T21:04:30.864Z,1.10
2023-10-03T21:07:20.256Z,1.40
2023-10-03T21:09:50.385Z,1.50
2023-10-03T21:12:19.724Z,1.83
2023-10-03T21:14:49.044Z,1.93
2023-10-03T21:17:18.258Z,1.77
2023-10-03T21:19:48.681Z,1.30
2023-10-03T21:22:17.715Z,1.33
2023-10-03T21:24:46.685Z,1.37
2023-10-03T21:27:15.847Z,1.50
2023-10-03T21:29:45.875Z,1.30
2023-10-03T21:32:15.582Z,1.13
2023-10-03T21:34:44.795Z,1.20
2023-10-03T21:37:15.713Z,1.30
2023-10-03T21:39:45.221Z,1.10
2023-10-03T21:42:14.381Z,1.17
2023-10-03T21:44:43.476Z,1.20
2023-10-03T21:47:12.563Z,1.10
2023-10-03T21:49:41.624Z,1.07
2023-10-03T21:52:10.676Z,1.00
2023-10-03T21:54:41.040Z,1.10
2023-10-03T21:57:10.311Z,1.30
2023-10-03T21:59:39.490Z,1.20
2023-10-03T22:02:08.818Z,1.37
2023-10-03T22:04:38.888Z,1.33
2023-10-03T22:07:07.965Z,1.30
2023-10-03T22:09:37.763Z,1.70
2023-10-03T22:12:08.569Z,1.87
2023-10-03T22:14:39.393Z,1.50
2023-10-03T22:17:08.793Z,1.70
2023-10-03T22:19:37.877Z,1.27
2023-10-03T22:22:06.985Z,1.20
2023-10-03T22:24:37.014Z,1.20
2023-10-03T22:27:07.607Z,1.23
2023-10-03T22:29:36.691Z,1.00
2023-10-03T22:32:06.281Z,0.70
2023-10-03T22:34:35.409Z,0.83
2023-10-03T22:37:04.552Z,0.97
2023-10-03T22:39:34.517Z,1.50
2023-10-03T22:42:03.680Z,1.60
2023-10-03T22:44:34.118Z,1.57
2023-10-03T22:47:03.484Z,1.50
2023-10-03T22:49:32.534Z,1.50
2023-10-03T22:52:01.657Z,1.57
2023-10-03T22:54:30.807Z,1.20
2023-10-03T22:57:00.116Z,1.00
2023-10-03T22:59:31.496Z,1.00
2023-10-03T23:02:01.985Z,1.00
2023-10-03T23:04:31.189Z,1.30
2023-10-03T23:07:00.425Z,1.23
2023-10-03T23:09:30.791Z,1.10
2023-10-03T23:12:00.639Z,1.20
2023-10-03T23:14:29.680Z,1.00
2023-10-03T23:16:58.755Z,1.23
2023-10-03T23:19:29.282Z,1.20
2023-10-03T23:21:58.518Z,0.90
2023-10-03T23:24:28.869Z,1.10
2023-10-03T23:26:57.954Z,1.23
2023-10-03T23:29:27.234Z,0.80
2023-10-03T23:31:56.357Z,1.10
2023-10-03T23:34:25.992Z,1.17
2023-10-03T23:36:58.742Z,1.23
2023-10-03T23:39:27.853Z,1.20
2023-10-03T23:41:56.996Z,1.40
2023-10-03T23:44:26.422Z,1.37
2023-10-03T23:46:55.619Z,1.20
2023-10-03T23:49:24.770Z,1.10
2023-10-03T23:51:53.844Z,1.10
2023-10-03T23:54:24.390Z,1.00
2023-10-03T23:56:53.550Z,1.30
2023-10-03T23:59:22.666Z,1.40
